1881 NOT_NAMED (1881001S09084)


IBTrACS version v04r00. Visit IBTrACS website for data access.
Please direct all questions to the IBTrACS Q and A forum

Storm track - Intensity - Wind Radii - Intensity Data - Source Data - All data

Summary Information

Storm ID 1881001S09084
Start Jan 1 06Z
End Jan 11 06Z
ATCF IDs
Track status Best track data.

Storm track plot

Map of storm track

Intensity plots

No Intensity information for this storm


Radial wind information

No radial wind information for this storm


Position and Intensity Table

BASIN ISO_TIME_________ NATURE LAT LON
degrees north degrees east
SI 1881-01-01 06:00:00 NR -9.50 83.50
SI 09:00:00 NR -9.52 83.47
SI 12:00:00 NR -9.54 83.43
SI 15:00:00 NR -9.56 83.38
SI 18:00:00 NR -9.60 83.30
SI 21:00:00 NR -9.65 83.21
SI 1881-01-02 00:00:00 NR -9.71 83.08
SI 03:00:00 NR -9.79 82.91
SI 06:00:00 NR -9.90 82.70
SI 09:00:00 NR -10.03 82.44
SI 12:00:00 NR -10.18 82.14
SI 15:00:00 NR -10.35 81.80
SI 18:00:00 NR -10.53 81.44
SI 21:00:00 NR -10.72 81.06
SI 1881-01-03 00:00:00 NR -10.91 80.67
SI 03:00:00 NR -11.11 80.28
SI 06:00:00 NR -11.30 79.90
SI 09:00:00 NR -11.47 79.56
SI 12:00:00 NR -11.65 79.23
SI 15:00:00 NR -11.82 78.90
SI 18:00:00 NR -11.99 78.57
SI 21:00:00 NR -12.17 78.25
SI 1881-01-04 00:00:00 NR -12.34 77.93
SI 03:00:00 NR -12.52 77.61
SI 06:00:00 NR -12.70 77.30
SI 09:00:00 NR -12.86 77.01
SI 12:00:00 NR -13.03 76.73
SI 15:00:00 NR -13.19 76.45
SI 18:00:00 NR -13.37 76.16
SI 21:00:00 NR -13.55 75.87
SI 1881-01-05 00:00:00 NR -13.75 75.57
SI 03:00:00 NR -13.96 75.25
SI 06:00:00 NR -14.20 74.90
SI 09:00:00 NR -14.46 74.50
SI 12:00:00 NR -14.74 74.08
SI 15:00:00 NR -15.04 73.63
SI 18:00:00 NR -15.35 73.18
SI 21:00:00 NR -15.68 72.72
SI 1881-01-06 00:00:00 NR -16.01 72.27
SI 03:00:00 NR -16.36 71.83
SI 06:00:00 NR -16.70 71.40
SI 09:00:00 NR -17.04 71.00
SI 12:00:00 NR -17.39 70.61
SI 15:00:00 NR -17.74 70.23
SI 18:00:00 NR -18.10 69.87
SI 21:00:00 NR -18.46 69.53
SI 1881-01-07 00:00:00 NR -18.81 69.20
SI 03:00:00 NR -19.16 68.89
SI 06:00:00 NR -19.50 68.60
SI 09:00:00 NR -19.84 68.31
SI 12:00:00 NR -20.17 68.05
SI 15:00:00 NR -20.49 67.80
SI 18:00:00 NR -20.81 67.57
SI 21:00:00 NR -21.12 67.36
SI 1881-01-08 00:00:00 NR -21.42 67.16
SI 03:00:00 NR -21.72 66.97
SI 06:00:00 NR -22.00 66.80
SI 09:00:00 NR -22.27 66.62
SI 12:00:00 NR -22.53 66.46
SI 15:00:00 NR -22.78 66.31
SI 18:00:00 NR -23.03 66.17
SI 21:00:00 NR -23.27 66.04
SI 1881-01-09 00:00:00 NR -23.51 65.92
SI 03:00:00 NR -23.75 65.80
SI 06:00:00 NR -24.00 65.70
SI 09:00:00 NR -24.28 65.58
SI 12:00:00 NR -24.57 65.47
SI 15:00:00 NR -24.85 65.36
SI 18:00:00 NR -25.13 65.27
SI 21:00:00 NR -25.40 65.18
SI 1881-01-10 00:00:00 NR -25.66 65.11
SI 03:00:00 NR -25.89 65.05
SI 06:00:00 NR -26.10 65.00
SI 09:00:00 NR -26.28 64.97
SI 12:00:00 NR -26.43 64.95
SI 15:00:00 NR -26.56 64.94
SI 18:00:00 NR -26.67 64.94
SI 21:00:00 NR -26.77 64.95
SI 1881-01-11 00:00:00 NR -26.85 64.96
SI 03:00:00 NR -26.93 64.98
SI 06:00:00 NR -27.00 65.00

Source Information

Agency Information
USA
TOKYO
CMA
HKO
NEWDELHI
REUNION WMO-Best-Tracks.txt:Line=1225:xxxx881180
BOM
NADI
WELLINGTON
DS824
TD9636
TD9635
NEUMANN
MLC

All available IBTrACS Data

SEASON BASIN SUBBASIN ISO_TIME_________ NATURE LAT LON WMO AGENCY DIST2LAND LANDFALL IFLAG USA SSHS REUNION LAT REUNION LON REUNION TYPE REUNION TNUM STORM SPEED STORM DIR
Year degrees north degrees east km km 1 degrees north degrees east 1 kts degrees
1881 SI MM 1881-01-01 06:00:00 NR -9.50 83.50 1755 1755 _____O________ -1 -9.50 83.50 99 9.90 1 245
1881 SI MM 09:00:00 NR -9.52 83.47 1755 1753 _____P________ -1 -9.52 83.47 99 1 242
1881 SI MM 12:00:00 NR -9.54 83.43 1753 1753 _____P________ -1 -9.54 83.43 99 1 241
1881 SI MM 15:00:00 NR -9.56 83.38 1764 1762 _____P________ -1 -9.56 83.38 99 1 242
1881 SI MM 18:00:00 NR -9.60 83.30 1762 1760 _____P________ -1 -9.60 83.30 99 2 244
1881 SI MM 21:00:00 NR -9.65 83.21 1760 1760 _____P________ -1 -9.65 83.21 99 2 243
1881 SI MM 1881-01-02 00:00:00 NR -9.71 83.08 1769 1768 _____P________ -1 -9.71 83.08 99 3 243
1881 SI MM 03:00:00 NR -9.79 82.91 1777 1776 _____P________ -1 -9.79 82.91 99 4 243
1881 SI MM 06:00:00 NR -9.90 82.70 1785 1784 _____O________ -1 -9.90 82.70 99 9.90 5 243
1881 SI MM 09:00:00 NR -10.03 82.44 1792 1792 _____P________ -1 -10.03 82.44 99 6 243
1881 SI MM 12:00:00 NR -10.18 82.14 1811 1810 _____P________ -1 -10.18 82.14 99 7 243
1881 SI MM 15:00:00 NR -10.35 81.80 1820 1820 _____P________ -1 -10.35 81.80 99 8 243
1881 SI MM 18:00:00 NR -10.53 81.44 1839 1839 _____P________ -1 -10.53 81.44 99 8 243
1881 SI MM 21:00:00 NR -10.72 81.06 1860 1860 _____P________ -1 -10.72 81.06 99 8 243
1881 SI MM 1881-01-03 00:00:00 NR -10.91 80.67 1882 1882 _____P________ -1 -10.91 80.67 99 9 243
1881 SI MM 03:00:00 NR -11.11 80.28 1905 1905 _____P________ -1 -11.11 80.28 99 9 243
1881 SI MM 06:00:00 NR -11.30 79.90 reunion 1928 1928 _____O________ -1 -11.30 79.90 99 9.90 8 242
1881 SI MM 09:00:00 NR -11.47 79.56 1952 1952 _____P________ -1 -11.47 79.56 99 7 242
1881 SI MM 12:00:00 NR -11.65 79.23 1966 1966 _____P________ -1 -11.65 79.23 99 7 242
1881 SI MM 15:00:00 NR -11.82 78.90 1992 1992 _____P________ -1 -11.82 78.90 99 7 242
1881 SI MM 18:00:00 NR -11.99 78.57 2017 2017 _____P________ -1 -11.99 78.57 99 7 241
1881 SI MM 21:00:00 NR -12.17 78.25 2045 2045 _____P________ -1 -12.17 78.25 99 7 241
1881 SI MM 1881-01-04 00:00:00 NR -12.34 77.93 2060 2060 _____P________ -1 -12.34 77.93 99 7 240
1881 SI MM 03:00:00 NR -12.52 77.61 2088 2088 _____P________ -1 -12.52 77.61 99 7 240
1881 SI MM 06:00:00 NR -12.70 77.30 reunion 2115 2115 _____O________ -1 -12.70 77.30 99 9.90 7 240
1881 SI MM 09:00:00 NR -12.86 77.01 2143 2143 _____P________ -1 -12.86 77.01 99 6 240
1881 SI MM 12:00:00 NR -13.03 76.73 2161 2142 _____P________ -1 -13.03 76.73 99 6 239
1881 SI MM 15:00:00 NR -13.19 76.45 2132 2103 _____P________ -1 -13.19 76.45 99 6 238
1881 SI MM 18:00:00 NR -13.37 76.16 2103 2069 _____P________ -1 -13.37 76.16 99 7 237
1881 SI MM 21:00:00 NR -13.55 75.87 2069 2030 _____P________ -1 -13.55 75.87 99 7 237
1881 SI MM 1881-01-05 00:00:00 NR -13.75 75.57 2030 1987 _____P________ -1 -13.75 75.57 99 7 236
1881 SI MM 03:00:00 NR -13.96 75.25 1977 1938 _____P________ -1 -13.96 75.25 99 8 235
1881 SI MM 06:00:00 NR -14.20 74.90 reunion 1938 1890 _____O________ -1 -14.20 74.90 99 9.90 9 235
1881 SI MM 09:00:00 NR -14.46 74.50 1885 1837 _____P________ -1 -14.46 74.50 99 10 236
1881 SI MM 12:00:00 NR -14.74 74.08 1837 1785 _____P________ -1 -14.74 74.08 99 10 235
1881 SI MM 15:00:00 NR -15.04 73.63 1775 1722 _____P________ -1 -15.04 73.63 99 11 235
1881 SI MM 18:00:00 NR -15.35 73.18 1718 1656 _____P________ -1 -15.35 73.18 99 11 234
1881 SI MM 21:00:00 NR -15.68 72.72 1656 1605 _____P________ -1 -15.68 72.72 99 11 233
1881 SI MM 1881-01-06 00:00:00 NR -16.01 72.27 1605 1553 _____P________ -1 -16.01 72.27 99 11 232
1881 SI MM 03:00:00 NR -16.36 71.83 1540 1489 _____P________ -1 -16.36 71.83 99 11 231
1881 SI MM 06:00:00 NR -16.70 71.40 reunion 1489 1438 _____O________ -1 -16.70 71.40 99 9.90 11 229
1881 SI MM 09:00:00 NR -17.04 71.00 1438 1385 _____P________ -1 -17.04 71.00 99 10 228
1881 SI MM 12:00:00 NR -17.39 70.61 1385 1345 _____P________ -1 -17.39 70.61 99 10 226
1881 SI MM 15:00:00 NR -17.74 70.23 1335 1293 _____P________ -1 -17.74 70.23 99 10 225
1881 SI MM 18:00:00 NR -18.10 69.87 1293 1245 _____P________ -1 -18.10 69.87 99 10 223
1881 SI MM 21:00:00 NR -18.46 69.53 1243 1205 _____P________ -1 -18.46 69.53 99 10 222
1881 SI MM 1881-01-07 00:00:00 NR -18.81 69.20 1205 1169 _____P________ -1 -18.81 69.20 99 9 221
1881 SI MM 03:00:00 NR -19.16 68.89 1167 1132 _____P________ -1 -19.16 68.89 99 9 219
1881 SI MM 06:00:00 NR -19.50 68.60 reunion 1132 1097 _____O________ -1 -19.50 68.60 99 9.90 9 219
1881 SI MM 09:00:00 NR -19.84 68.31 1097 1074 _____P________ -1 -19.84 68.31 99 8 218
1881 SI MM 12:00:00 NR -20.17 68.05 1063 1042 _____P________ -1 -20.17 68.05 99 8 216
1881 SI MM 15:00:00 NR -20.49 67.80 1042 1021 _____P________ -1 -20.49 67.80 99 8 215
1881 SI MM 18:00:00 NR -20.81 67.57 1021 1001 _____P________ -1 -20.81 67.57 99 8 213
1881 SI MM 21:00:00 NR -21.12 67.36 1002 983 _____P________ -1 -21.12 67.36 99 7 212
1881 SI MM 1881-01-08 00:00:00 NR -21.42 67.16 984 966 _____P________ -1 -21.42 67.16 99 7 211
1881 SI MM 03:00:00 NR -21.72 66.97 967 950 _____P________ -1 -21.72 66.97 99 7 210
1881 SI MM 06:00:00 NR -22.00 66.80 reunion 952 936 _____O________ -1 -22.00 66.80 99 9.90 6 211
1881 SI MM 09:00:00 NR -22.27 66.62 938 930 _____P________ -1 -22.27 66.62 99 6 211
1881 SI MM 12:00:00 NR -22.53 66.46 933 919 _____P________ -1 -22.53 66.46 99 6 210
1881 SI MM 15:00:00 NR -22.78 66.31 922 915 _____P________ -1 -22.78 66.31 99 6 208
1881 SI MM 18:00:00 NR -23.03 66.17 918 910 _____P________ -1 -23.03 66.17 99 6 207
1881 SI MM 21:00:00 NR -23.27 66.04 910 904 _____P________ -1 -23.27 66.04 99 5 205
1881 SI MM 1881-01-09 00:00:00 NR -23.51 65.92 908 907 _____P________ -1 -23.51 65.92 99 5 204
1881 SI MM 03:00:00 NR -23.75 65.80 911 906 _____P________ -1 -23.75 65.80 99 5 202
1881 SI MM 06:00:00 NR -24.00 65.70 reunion 911 906 _____O________ -1 -24.00 65.70 99 9.90 6 201
1881 SI MM 09:00:00 NR -24.28 65.58 916 911 _____P________ -1 -24.28 65.58 99 6 201
1881 SI MM 12:00:00 NR -24.57 65.47 922 913 _____P________ -1 -24.57 65.47 99 6 199
1881 SI MM 15:00:00 NR -24.85 65.36 929 921 _____P________ -1 -24.85 65.36 99 6 198
1881 SI MM 18:00:00 NR -25.13 65.27 932 930 _____P________ -1 -25.13 65.27 99 6 197
1881 SI MM 21:00:00 NR -25.40 65.18 942 940 _____P________ -1 -25.40 65.18 99 5 195
1881 SI MM 1881-01-10 00:00:00 NR -25.66 65.11 953 953 _____P________ -1 -25.66 65.11 99 5 194
1881 SI MM 03:00:00 NR -25.89 65.05 959 959 _____P________ -1 -25.89 65.05 99 5 192
1881 SI MM 06:00:00 NR -26.10 65.00 reunion 972 972 _____O________ -1 -26.10 65.00 99 9.90 4 190
1881 SI MM 09:00:00 NR -26.28 64.97 986 986 _____P________ -1 -26.28 64.97 99 3 185
1881 SI MM 12:00:00 NR -26.43 64.95 986 986 _____P________ -1 -26.43 64.95 99 3 182
1881 SI MM 15:00:00 NR -26.56 64.94 1000 1000 _____P________ -1 -26.56 64.94 99 2 183
1881 SI MM 18:00:00 NR -26.67 64.94 1008 1008 _____P________ -1 -26.67 64.94 99 2 0
1881 SI MM 21:00:00 NR -26.77 64.95 1015 1015 _____P________ -1 -26.77 64.95 99 2 0
1881 SI MM 1881-01-11 00:00:00 NR -26.85 64.96 1030 1030 _____P________ -1 -26.85 64.96 99 2 169
1881 SI MM 03:00:00 NR -26.93 64.98 1030 1030 _____P________ -1 -26.93 64.98 99 2 166
1881 SI MM 06:00:00 NR -27.00 65.00 reunion 1038 _____O________ -1 -27.00 65.00 99 9.90 1 0